Time;durP1;ratioP1;P1;durP2;ratioP2;P2;SDS_P1;SDS_P2;PMS_P1;PMS_P2;Temp;Humidity;BMP_temperature;BMP_pressure;BME280_temperature;BME280_humidity;BME280_pressure;Samples;Min_cycle;Max_cycle;Signal;HPM_P1;HPM_P2
2023/02/08 00:04:29;;;;;;;48.83;23.25;;;;;;;-3.12;59.58;100079.94;10516851;28;20098;-76
2023/02/08 00:09:50;;;;;;;49.00;24.70;;;;;;;-3.24;60.62;100076.06;10516113;28;20073;-76
2023/02/08 00:15:11;;;;;;;56.58;27.48;;;;;;;-3.30;60.63;100081.34;10488172;28;20036;-76
2023/02/08 00:20:31;;;;;;;58.58;27.73;;;;;;;-3.34;61.20;100072.53;10501872;28;20044;-76
2023/02/08 00:25:52;;;;;;;55.20;25.95;;;;;;;-3.34;60.88;100085.41;10501614;28;20051;-76
2023/02/08 00:31:13;;;;;;;56.05;26.80;;;;;;;-3.40;62.47;100087.94;10487713;28;20401;-76
2023/02/08 00:36:34;;;;;;;61.38;28.58;;;;;;;-3.39;60.52;100088.69;10487271;28;20048;-76
2023/02/08 00:41:54;;;;;;;60.72;30.48;;;;;;;-3.43;61.13;100088.06;10487234;28;20111;-76
2023/02/08 00:47:15;;;;;;;65.47;28.92;;;;;;;-3.41;60.51;100089.16;10528392;28;20048;-76
2023/02/08 00:52:36;;;;;;;57.85;28.10;;;;;;;-3.47;61.16;100096.41;10500585;28;20055;-76
2023/02/08 00:57:57;;;;;;;58.17;26.38;;;;;;;-3.49;61.34;100090.59;10513061;28;20040;-76
2023/02/08 01:03:21;;;;;;;65.88;29.90;;;;;;;-3.51;61.47;100093.00;10499897;28;20067;-76
2023/02/08 01:08:42;;;;;;;56.97;29.17;;;;;;;-3.52;61.33;100086.03;10513995;28;20040;-76
2023/02/08 01:14:03;;;;;;;58.30;29.52;;;;;;;-3.56;61.30;100094.34;10485950;28;20036;-76
2023/02/08 01:19:25;;;;;;;63.08;29.90;;;;;;;-3.61;61.76;100100.34;10485888;28;20409;-76
2023/02/08 01:24:46;;;;;;;59.72;30.42;;;;;;;-3.65;61.29;100101.69;10485821;28;20101;-76
2023/02/08 01:30:07;;;;;;;63.72;30.33;;;;;;;-3.68;61.11;100106.03;10499208;28;20055;-76
2023/02/08 01:35:29;;;;;;;66.30;30.02;;;;;;;-3.67;61.52;100095.88;10499103;28;20040;-76
2023/02/08 01:40:50;;;;;;;65.90;31.23;;;;;;;-3.75;62.29;100096.16;10512831;28;20397;-77
2023/02/08 01:46:11;;;;;;;58.90;29.60;;;;;;;-3.77;61.80;100093.06;10498249;28;20382;-76
2023/02/08 01:51:34;;;;;;;61.78;31.17;;;;;;;-3.84;61.67;100087.88;10512607;28;20063;-76
2023/02/08 01:56:57;;;;;;;65.88;31.95;;;;;;;-3.82;62.78;100077.28;10499251;28;20036;-76
2023/02/08 02:02:19;;;;;;;62.67;30.70;;;;;;;-3.89;61.54;100082.19;10497673;28;20072;-76
2023/02/08 02:07:40;;;;;;;63.63;29.67;;;;;;;-3.90;62.33;100078.69;10511270;28;20040;-76
2023/02/08 02:13:09;;;;;;;67.57;31.95;;;;;;;-3.94;62.19;100072.63;10511192;28;20039;-76
2023/02/08 02:18:30;;;;;;;74.70;33.60;;;;;;;-3.92;62.82;100070.19;10511774;28;20067;-76
2023/02/08 02:24:22;;;;;;;67.57;32.67;;;;;;;-3.94;62.46;100067.16;10497164;28;20039;-76
2023/02/08 02:29:46;;;;;;;70.68;32.90;;;;;;;-4.07;62.59;100067.16;10510695;28;20047;-76
2023/02/08 02:35:14;;;;;;;68.25;33.58;;;;;;;-4.09;63.09;100066.09;10510970;28;20109;-76
2023/02/08 02:40:50;;;;;;;68.68;33.30;;;;;;;-4.09;63.28;100066.09;10510618;28;20048;-76
2023/02/08 02:46:25;;;;;;;68.78;33.28;;;;;;;-4.15;62.74;100073.28;10524570;28;20051;-76
2023/02/08 02:51:57;;;;;;;70.47;34.03;;;;;;;-4.22;62.97;100078.97;10496523;28;20485;-76
2023/02/08 02:57:23;;;;;;;70.53;32.00;;;;;;;-4.26;62.93;100076.34;10524329;28;20285;-76
2023/02/08 03:02:44;;;;;;;;;;;;;;;-4.29;63.22;100095.56;10497162;28;20052;-76
2023/02/08 03:08:11;;;;;;;66.82;32.25;;;;;;;-4.40;63.63;100095.88;10509660;28;19963;-76
2023/02/08 03:13:53;;;;;;;76.95;33.92;;;;;;;-4.43;63.70;100103.00;10524045;28;20040;-76
2023/02/08 03:19:27;;;;;;;75.57;33.75;;;;;;;-4.44;63.43;100097.94;10509806;28;20040;-76
2023/02/08 03:24:58;;;;;;;70.63;32.40;;;;;;;-4.43;63.41;100094.03;10518174;28;20052;-76
2023/02/08 03:30:34;;;;;;;67.65;32.28;;;;;;;-4.38;63.68;100102.44;10490236;28;20036;-76
2023/02/08 03:35:58;;;;;;;74.95;33.67;;;;;;;-4.43;63.45;100108.44;10518688;28;20040;-76
2023/02/08 03:41:26;;;;;;;73.82;34.00;;;;;;;-4.48;63.85;100116.38;10517578;28;20047;-77
2023/02/08 03:47:12;;;;;;;67.15;31.88;;;;;;;-4.40;63.71;100107.56;10517005;28;20051;-76
2023/02/08 03:52:32;;;;;;;68.40;31.83;;;;;;;-4.49;64.04;100112.13;10516936;28;20398;-76
2023/02/08 03:58:10;;;;;;;66.18;31.92;;;;;;;-4.56;63.85;100113.09;10517111;28;20093;-76
2023/02/08 04:03:31;;;;;;;76.40;35.72;;;;;;;-4.58;63.64;100112.00;10503160;28;20501;-76
2023/02/08 04:08:51;;;;;;;71.15;32.85;;;;;;;-4.64;63.47;100115.28;10515872;28;20048;-76
2023/02/08 04:14:12;;;;;;;71.57;32.78;;;;;;;-4.76;63.50;100117.97;10502104;28;20036;-76
2023/02/08 04:19:33;;;;;;;70.60;32.15;;;;;;;-4.81;64.68;100126.72;10516821;28;20041;-76
2023/02/08 04:24:54;;;;;;;68.63;35.17;;;;;;;-4.83;65.12;100118.94;10490811;28;20044;-77
2023/02/08 04:30:15;;;;;;;73.38;34.78;;;;;;;-4.82;64.81;100125.19;10487538;28;20044;-77
2023/02/08 04:35:36;;;;;;;72.10;35.10;;;;;;;-4.83;64.37;100123.63;10497642;28;20051;-76
2023/02/08 04:40:57;;;;;;;80.13;33.75;;;;;;;-4.89;64.49;100128.88;10495339;28;20043;-77
2023/02/08 04:46:18;;;;;;;72.28;34.00;;;;;;;-4.92;64.66;100133.22;10496652;28;20047;-77
2023/02/08 04:51:39;;;;;;;71.82;34.58;;;;;;;-4.96;64.71;100132.53;10504692;28;20441;-77
2023/02/08 04:57:00;;;;;;;75.50;34.80;;;;;;;-5.01;65.07;100130.34;10488056;28;20048;-77
2023/02/08 05:02:21;;;;;;;76.57;35.90;;;;;;;-5.12;65.31;100135.31;10496067;28;20482;-76
2023/02/08 05:07:42;;;;;;;70.90;34.42;;;;;;;-5.09;65.17;100141.88;10480752;28;20058;-76
2023/02/08 05:13:03;;;;;;;75.47;33.70;;;;;;;-5.12;64.88;100135.31;10494493;28;20047;-77
2023/02/08 05:18:24;;;;;;;74.80;35.53;;;;;;;-5.16;65.17;100140.09;10494341;28;20040;-77
2023/02/08 05:23:45;;;;;;;72.47;34.97;;;;;;;-5.09;64.81;100133.72;10497103;28;20097;-77
2023/02/08 05:29:06;;;;;;;80.45;36.33;;;;;;;-5.08;64.64;100130.56;10500420;28;20048;-77
2023/02/08 05:34:27;;;;;;;82.93;38.08;;;;;;;-5.11;65.57;100136.09;10478567;28;20040;-77
2023/02/08 05:39:49;;;;;;;83.25;38.95;;;;;;;-5.11;65.19;100138.81;10463717;28;20040;-77
2023/02/08 05:45:09;;;;;;;77.90;37.78;;;;;;;-5.16;65.99;100148.28;10459963;28;20066;-77
2023/02/08 05:50:31;;;;;;;78.75;35.03;;;;;;;-5.16;65.40;100151.00;10484359;28;20040;-77
2023/02/08 05:55:52;;;;;;;78.80;35.70;;;;;;;-5.16;65.04;100148.28;10479892;28;20036;-77
2023/02/08 06:01:13;;;;;;;75.07;35.42;;;;;;;-5.16;65.45;100156.44;10495833;28;20051;-77
2023/02/08 06:06:35;;;;;;;68.13;33.33;;;;;;;-5.18;65.49;100165.03;10495567;28;20060;-78
2023/02/08 06:11:56;;;;;;;74.53;34.92;;;;;;;-5.15;65.05;100163.41;10503269;28;20064;-77
2023/02/08 06:17:17;;;;;;;76.18;34.92;;;;;;;-5.14;65.30;100169.63;10506961;28;20043;-76
2023/02/08 06:22:38;;;;;;;84.43;36.40;;;;;;;-5.15;65.82;100177.03;10496235;28;20543;-77
2023/02/08 06:27:58;;;;;;;77.68;36.08;;;;;;;-5.11;65.70;100177.72;10510010;28;20040;-78
2023/02/08 06:33:19;;;;;;;78.10;35.95;;;;;;;-5.09;66.37;100182.72;10472338;28;20048;-77
2023/02/08 06:38:40;;;;;;;76.10;36.40;;;;;;;-5.01;66.21;100179.41;10453904;28;20094;-77
2023/02/08 06:44:01;;;;;;;79.55;37.55;;;;;;;-4.47;66.34;100183.34;10455125;28;20109;-77
2023/02/08 06:49:23;;;;;;;71.82;35.47;;;;;;;-3.57;65.63;100185.66;10455504;28;20120;-77
2023/02/08 06:54:44;;;;;;;76.20;36.45;;;;;;;-2.46;63.95;100185.31;10456327;28;20367;-77
2023/02/08 07:00:05;;;;;;;74.43;37.97;;;;;;;-1.02;61.88;100198.38;10477329;28;20091;-77
2023/02/08 07:05:26;;;;;;;78.78;38.60;;;;;;;0.42;59.91;100196.97;10462129;28;20056;-77
2023/02/08 07:10:47;;;;;;;77.05;39.67;;;;;;;1.72;56.57;100209.22;10449308;28;20060;-78
2023/02/08 07:16:08;;;;;;;82.53;42.08;;;;;;;3.18;54.31;100203.72;10462959;28;20040;-78
2023/02/08 07:21:29;;;;;;;90.78;41.72;;;;;;;4.26;51.81;100220.81;10476740;28;20110;-78
2023/02/08 07:26:50;;;;;;;76.32;42.40;;;;;;;5.49;48.33;100212.28;10448701;28;20413;-78
2023/02/08 07:32:12;;;;;;;75.30;41.38;;;;;;;6.41;50.00;100214.09;10476075;28;20064;-76
2023/02/08 07:37:33;;;;;;;80.45;42.72;;;;;;;7.86;46.92;100228.59;10476655;28;20045;-76
2023/02/08 07:42:54;;;;;;;79.90;42.97;;;;;;;8.41;38.06;100219.06;10475991;28;20059;-76
2023/02/08 07:48:26;;;;;;;70.70;41.60;;;;;;;8.85;42.18;100231.75;10464696;28;20048;-76
2023/02/08 07:53:46;;;;;;;68.30;38.70;;;;;;;9.51;42.32;100233.47;10489198;28;20048;-76
2023/02/08 07:59:07;;;;;;;63.55;38.15;;;;;;;10.25;36.23;100240.22;10489264;28;20040;-76
2023/02/08 08:04:28;;;;;;;58.45;36.65;;;;;;;8.01;39.92;100237.34;10489006;28;20052;-76
2023/02/08 08:09:49;;;;;;;61.67;38.50;;;;;;;7.05;39.84;100241.94;10460336;28;20068;-76
2023/02/08 08:15:10;;;;;;;62.80;37.08;;;;;;;10.97;38.45;100238.13;10475627;28;20064;-77
2023/02/08 08:20:30;;;;;;;66.13;40.10;;;;;;;14.68;31.89;100241.59;10477260;28;20443;-76
2023/02/08 08:25:51;;;;;;;57.97;38.30;;;;;;;17.53;33.15;100234.88;10476044;28;20075;-77
2023/02/08 08:31:16;;;;;;;56.53;39.47;;;;;;;19.45;30.80;100247.31;10475485;28;20049;-78
2023/02/08 08:36:37;;;;;;;55.53;39.00;;;;;;;19.57;22.75;100239.72;10460715;28;20116;-77
2023/02/08 08:41:58;;;;;;;51.17;36.63;;;;;;;21.25;24.55;100238.41;10459628;28;20102;-75
2023/02/08 08:47:20;;;;;;;48.72;35.42;;;;;;;21.45;22.34;100243.94;10459373;28;20041;-78
2023/02/08 08:52:41;;;;;;;45.53;31.95;;;;;;;23.09;20.50;100239.00;10487305;28;20052;-76
2023/02/08 08:58:02;;;;;;;44.78;30.00;;;;;;;22.41;19.76;100253.47;10473245;28;20471;-78
2023/02/08 09:03:23;;;;;;;40.22;26.25;;;;;;;23.12;16.72;100255.56;10485719;28;20109;-78
2023/02/08 09:08:44;;;;;;;33.88;25.60;;;;;;;22.54;16.24;100250.72;10514644;28;20040;-77
2023/02/08 09:14:05;;;;;;;34.75;26.95;;;;;;;22.69;14.68;100243.03;10499518;28;20036;-78
2023/02/08 09:19:26;;;;;;;31.55;24.95;;;;;;;24.17;13.65;100248.53;10498807;28;20040;-77
2023/02/08 09:24:47;;;;;;;28.38;23.63;;;;;;;23.75;13.72;100237.69;10499670;28;20063;-76
2023/02/08 09:30:09;;;;;;;31.45;22.55;;;;;;;24.11;13.24;100253.19;10513212;28;20040;-77
2023/02/08 09:35:30;;;;;;;33.17;22.08;;;;;;;22.69;13.12;100243.03;10512843;28;20044;-78
2023/02/08 09:41:17;;;;;;;33.45;24.80;;;;;;;22.77;13.29;100235.69;10513054;28;20070;-77
2023/02/08 09:46:40;;;;;;;27.45;22.00;;;;;;;24.03;11.80;100244.94;10500962;28;20044;-77
2023/02/08 09:52:08;;;;;;;25.85;20.70;;;;;;;22.57;13.23;100238.09;10484995;28;20047;-76
2023/02/08 09:57:32;;;;;;;24.35;19.45;;;;;;;23.83;13.21;100235.28;10470544;28;20047;-77
2023/02/08 10:02:53;;;;;;;25.55;19.35;;;;;;;22.46;13.31;100236.00;10469324;28;20056;-76
2023/02/08 10:08:14;;;;;;;23.27;18.10;;;;;;;23.06;13.02;100226.72;10494955;28;20040;-76
2023/02/08 10:13:44;;;;;;;23.85;19.55;;;;;;;23.19;12.59;100224.59;10497519;28;20071;-75
2023/02/08 10:19:18;;;;;;;24.23;19.13;;;;;;;18.46;15.70;100215.97;10540229;28;20371;-76
2023/02/08 10:24:48;;;;;;;26.30;19.00;;;;;;;14.94;19.31;100217.16;10502840;28;20079;-75
2023/02/08 10:30:26;;;;;;;27.17;19.25;;;;;;;14.39;20.06;100210.13;10497773;28;20406;-76
2023/02/08 10:35:47;;;;;;;24.42;17.95;;;;;;;17.49;17.96;100191.47;10454075;28;20040;-75
2023/02/08 10:41:09;;;;;;;26.23;17.60;;;;;;;20.19;15.40;100191.63;10455821;28;20048;-75
2023/02/08 10:46:39;;;;;;;23.10;17.93;;;;;;;17.48;17.32;100184.31;10469266;28;20044;-75
2023/02/08 10:52:01;;;;;;;25.13;17.88;;;;;;;19.68;16.38;100193.00;10487994;28;20125;-78
2023/02/08 10:57:24;;;;;;;25.92;17.73;;;;;;;20.55;14.71;100186.94;10539448;28;20157;-77
2023/02/08 11:02:48;;;;;;;29.05;17.80;;;;;;;15.40;17.61;100178.34;10501377;28;20059;-77
2023/02/08 11:08:09;;;;;;;26.17;17.83;;;;;;;11.55;20.63;100178.44;10518859;28;20105;-77
2023/02/08 11:13:36;;;;;;;28.05;17.48;;;;;;;11.50;23.31;100164.59;10517027;28;20140;-77
2023/02/08 11:18:58;;;;;;;26.80;17.25;;;;;;;10.84;22.30;100149.50;10498898;28;20092;-75
2023/02/08 11:24:42;;;;;;;32.40;18.85;;;;;;;10.09;24.62;100158.25;10469670;28;20041;-76
2023/02/08 11:30:12;;;;;;;35.28;20.02;;;;;;;10.04;25.85;100161.91;10471428;28;20467;-75
2023/02/08 11:35:33;;;;;;;31.35;20.95;;;;;;;10.28;26.79;100147.03;10497884;28;20097;-75
2023/02/08 11:40:56;;;;;;;34.28;19.00;;;;;;;9.63;27.46;100134.41;10461406;28;20078;-76
2023/02/08 11:46:22;;;;;;;28.48;19.27;;;;;;;9.33;27.70;100134.63;10516333;28;20051;-76
2023/02/08 11:51:43;;;;;;;29.98;19.08;;;;;;;9.22;27.34;100135.53;10519580;28;20032;-75
2023/02/08 11:57:14;;;;;;;29.48;15.27;;;;;;;8.76;28.13;100137.41;10501867;28;20040;-75
2023/02/08 12:02:36;;;;;;;25.70;16.15;;;;;;;8.18;28.21;100132.22;10529806;28;20055;-76
2023/02/08 12:08:06;;;;;;;30.65;16.55;;;;;;;7.72;29.93;100128.38;10523847;28;20432;-76
2023/02/08 12:13:53;;;;;;;30.58;17.60;;;;;;;7.07;30.79;100122.75;10528440;28;20398;-76
2023/02/08 12:19:27;;;;;;;29.98;17.48;;;;;;;6.38;32.02;100115.25;10514881;28;20486;-73
2023/02/08 12:25:28;;;;;;;30.95;18.30;;;;;;;6.22;33.21;100116.03;10504533;28;20056;-73
2023/02/08 12:31:21;;;;;;;30.85;17.30;;;;;;;6.03;34.34;100111.03;10485209;28;20056;-73
2023/02/08 12:36:43;;;;;;;31.27;16.00;;;;;;;5.27;35.37;100097.44;10482291;28;20068;-73
2023/02/08 12:42:15;;;;;;;30.75;16.70;;;;;;;5.59;34.63;100091.66;10506412;28;20038;-75
2023/02/08 12:47:39;;;;;;;31.20;16.20;;;;;;;5.81;34.17;100069.47;10487595;28;20044;-73
2023/02/08 12:53:07;;;;;;;29.58;16.70;;;;;;;6.38;34.87;100065.31;10519704;28;20043;-73
2023/02/08 12:58:37;;;;;;;23.88;13.95;;;;;;;6.33;33.15;100060.53;10482040;28;20478;-73
2023/02/08 13:04:14;;;;;;;23.73;13.32;;;;;;;6.04;33.22;100053.56;10477060;28;20053;-73
2023/02/08 13:10:03;;;;;;;25.17;14.25;;;;;;;5.33;34.35;100048.34;10491593;28;20048;-77
2023/02/08 13:15:37;;;;;;;23.52;14.35;;;;;;;5.17;34.88;100032.47;10466979;28;20528;-77
2023/02/08 13:21:21;;;;;;;27.83;14.70;;;;;;;5.11;34.35;100026.19;10504256;28;20051;-77
2023/02/08 13:26:42;;;;;;;28.55;13.40;;;;;;;4.74;35.31;100029.94;10514007;28;20052;-77
2023/02/08 13:32:19;;;;;;;24.50;14.25;;;;;;;4.84;34.69;100025.66;10499182;28;20466;-77
2023/02/08 13:37:40;;;;;;;27.52;14.63;;;;;;;4.85;34.94;100041.00;10486193;28;20051;-75
2023/02/08 13:43:01;;;;;;;26.60;13.43;;;;;;;4.72;35.54;100035.19;10498884;28;20390;-76
2023/02/08 13:48:22;;;;;;;26.17;14.38;;;;;;;4.89;35.64;100033.19;10498275;28;20051;-76
2023/02/08 13:53:46;;;;;;;24.20;13.88;;;;;;;4.68;35.13;100034.69;10498578;28;20044;-74
2023/02/08 13:59:32;;;;;;;27.00;14.45;;;;;;;4.42;36.49;100047.91;10541182;28;20478;-74
2023/02/08 14:04:58;;;;;;;25.27;13.20;;;;;;;4.24;35.87;100036.03;10514432;28;20059;-74
2023/02/08 14:10:40;;;;;;;23.77;12.35;;;;;;;3.90;37.17;100043.41;10526540;28;20036;-77
2023/02/08 14:16:22;;;;;;;26.00;12.68;;;;;;;3.91;36.94;100027.59;10514097;28;20039;-76
2023/02/08 14:21:49;;;;;;;26.95;13.88;;;;;;;3.66;37.13;100029.19;10525775;28;20036;-75
2023/02/08 14:27:20;;;;;;;21.05;12.27;;;;;;;3.70;37.74;100024.22;10525887;28;20105;-77
2023/02/08 14:32:46;;;;;;;25.55;12.35;;;;;;;3.77;37.86;100023.75;10511937;28;20039;-77
2023/02/08 14:38:19;;;;;;;23.77;12.55;;;;;;;3.48;39.02;100016.56;10512516;28;20474;-76
2023/02/08 14:43:41;;;;;;;29.38;16.10;;;;;;;3.24;40.27;100013.34;10540876;28;20076;-74
2023/02/08 14:49:16;;;;;;;30.02;15.82;;;;;;;3.08;41.58;100012.72;10524839;28;20044;-75
2023/02/08 14:54:42;;;;;;;28.98;16.63;;;;;;;2.82;42.50;100006.47;10525172;28;20032;-72
2023/02/08 15:00:06;;;;;;;28.08;16.05;;;;;;;2.69;42.18;100011.59;10525136;28;20548;-74
2023/02/08 15:05:28;;;;;;;30.97;17.53;;;;;;;2.70;42.31;99997.34;10510669;28;20052;-76
2023/02/08 15:10:49;;;;;;;29.85;16.38;;;;;;;2.59;43.69;99997.97;10509761;28;20066;-76
2023/02/08 15:16:10;;;;;;;28.42;14.30;;;;;;;2.42;43.36;99996.28;10520044;28;20126;-76
2023/02/08 15:21:35;;;;;;;29.85;14.73;;;;;;;2.17;44.48;99993.00;10516967;28;20466;-75
2023/02/08 15:26:56;;;;;;;32.28;15.73;;;;;;;2.00;44.21;99992.78;10515990;28;20050;-75
2023/02/08 15:32:19;;;;;;;37.22;15.80;;;;;;;1.85;46.28;99994.88;10530385;28;20047;-76
2023/02/08 15:37:42;;;;;;;30.27;15.75;;;;;;;1.79;46.07;99987.78;10517992;28;20054;-76
2023/02/08 15:43:13;;;;;;;30.88;15.52;;;;;;;1.72;45.85;99989.69;10517636;28;20466;-76
2023/02/08 15:48:41;;;;;;;24.88;11.43;;;;;;;1.65;44.14;99986.59;10517738;28;20048;-75
2023/02/08 15:54:03;;;;;;;20.33;10.43;;;;;;;1.33;43.72;99993.88;10489042;28;20049;-78
2023/02/08 15:59:26;;;;;;;21.63;9.40;;;;;;;1.03;44.02;99993.16;10489104;28;20048;-77
2023/02/08 16:04:47;;;;;;;19.35;10.45;;;;;;;0.92;44.22;99993.72;10475049;28;20060;-77
2023/02/08 16:10:08;;;;;;;15.05;8.05;;;;;;;0.83;44.02;99986.34;10488784;28;20158;-76
2023/02/08 16:15:37;;;;;;;18.65;7.85;;;;;;;0.75;44.15;99990.69;10475010;28;20086;-76
2023/02/08 16:20:59;;;;;;;15.73;8.40;;;;;;;0.69;43.92;99992.59;10488318;28;20417;-76
2023/02/08 16:26:23;;;;;;;15.30;8.15;;;;;;;0.66;44.54;99988.03;10478832;28;20402;-76
2023/02/08 16:31:45;;;;;;;19.77;9.23;;;;;;;0.59;44.54;99987.66;10502765;28;20462;-76
2023/02/08 16:37:25;;;;;;;17.33;8.07;;;;;;;0.57;44.57;99985.38;10543811;28;20405;-74
2023/02/08 16:42:46;;;;;;;16.50;8.13;;;;;;;0.56;44.74;99989.34;10516239;28;20399;-75
2023/02/08 16:48:34;;;;;;;18.77;7.88;;;;;;;0.46;44.92;99991.44;10501327;28;20047;-78
2023/02/08 16:54:00;;;;;;;16.20;7.95;;;;;;;0.43;45.42;99983.38;10515496;28;20044;-76
2023/02/08 16:59:22;;;;;;;19.00;8.73;;;;;;;0.25;45.97;99982.28;10527458;28;20089;-77
2023/02/08 17:04:43;;;;;;;14.63;7.78;;;;;;;0.20;45.70;99969.22;10513235;28;20053;-75
2023/02/08 17:10:05;;;;;;;21.33;8.85;;;;;;;0.13;46.48;99966.84;10511198;28;20044;-76
2023/02/08 17:15:26;;;;;;;21.92;9.35;;;;;;;0.09;46.78;99973.72;10541537;28;20063;-75
2023/02/08 17:20:48;;;;;;;19.13;9.55;;;;;;;0.03;46.28;99976.38;10513790;28;20108;-76
2023/02/08 17:26:14;;;;;;;20.38;9.60;;;;;;;0.02;46.17;99965.88;10527556;28;20048;-75
2023/02/08 17:31:35;;;;;;;21.80;9.75;;;;;;;-0.09;46.54;99969.91;10527548;28;20106;-75
2023/02/08 17:36:57;;;;;;;20.38;10.38;;;;;;;-0.20;48.03;99971.66;10499916;28;20040;-75
2023/02/08 17:42:18;;;;;;;23.52;9.57;;;;;;;-0.21;47.71;99972.88;10511970;28;20040;-76
2023/02/08 17:47:41;;;;;;;18.92;9.60;;;;;;;-0.25;47.55;99980.53;10512711;28;20047;-76
2023/02/08 17:53:02;;;;;;;18.38;9.25;;;;;;;-0.25;47.57;99977.78;10498802;28;20500;-76
2023/02/08 17:58:24;;;;;;;18.92;9.77;;;;;;;-0.27;47.55;99974.75;10498554;28;20051;-76
2023/02/08 18:03:45;;;;;;;18.35;9.52;;;;;;;-0.30;47.98;99984.66;10512067;28;20587;-76
2023/02/08 18:09:06;;;;;;;18.23;9.55;;;;;;;-0.35;48.17;99982.56;10511870;28;20101;-74
2023/02/08 18:14:28;;;;;;;18.45;9.27;;;;;;;-0.37;48.23;99983.03;10484076;28;20470;-75
2023/02/08 18:19:48;;;;;;;20.20;9.50;;;;;;;-0.43;48.05;99973.16;10497414;28;20498;-74
2023/02/08 18:25:10;;;;;;;18.30;8.93;;;;;;;-0.49;48.62;99978.53;10497475;28;20048;-74
2023/02/08 18:30:32;;;;;;;18.38;9.32;;;;;;;-0.55;48.72;99983.16;10511737;28;20044;-76
2023/02/08 18:35:53;;;;;;;22.33;10.48;;;;;;;-0.60;48.92;99989.25;10497357;28;20486;-75
2023/02/08 18:41:17;;;;;;;17.52;9.43;;;;;;;-0.59;48.13;99977.03;10483118;28;20044;-75
2023/02/08 18:46:38;;;;;;;;;;;;;;;-0.73;48.81;99977.75;10512069;28;20109;-75
2023/02/08 18:51:59;;;;;;;17.67;9.63;;;;;;;-0.81;49.71;99985.53;10500841;28;19954;-75
2023/02/08 18:57:21;;;;;;;17.20;8.35;;;;;;;-0.80;49.15;99986.28;10519352;28;20040;-75
2023/02/08 19:02:45;;;;;;;19.60;8.88;;;;;;;-0.90;49.46;99980.84;10505037;28;20101;-75
2023/02/08 19:08:06;;;;;;;16.92;8.60;;;;;;;-0.90;50.13;99983.59;10505672;28;20048;-75
2023/02/08 19:13:27;;;;;;;15.80;8.82;;;;;;;-0.90;50.03;99991.81;10504900;28;20040;-74
2023/02/08 19:18:48;;;;;;;19.63;9.65;;;;;;;-0.90;50.26;99985.56;10504712;28;20047;-74
2023/02/08 19:24:11;;;;;;;16.88;8.88;;;;;;;-0.97;50.73;99983.16;10518278;28;20050;-74
2023/02/08 19:29:35;;;;;;;21.63;9.75;;;;;;;-1.11;50.84;99984.56;10518259;28;20494;-74
2023/02/08 19:34:56;;;;;;;19.50;10.18;;;;;;;-1.19;51.69;99995.09;10504103;28;20040;-74
2023/02/08 19:40:18;;;;;;;17.63;8.68;;;;;;;-1.25;51.92;99979.75;10494473;28;20035;-76
2023/02/08 19:45:43;;;;;;;19.73;9.75;;;;;;;-1.33;50.83;99964.84;10488860;28;20079;-76
2023/02/08 19:51:05;;;;;;;17.42;9.05;;;;;;;-1.38;51.45;99965.44;10462265;28;20036;-76
2023/02/08 19:56:30;;;;;;;18.10;8.93;;;;;;;-1.47;52.45;99945.06;10450952;28;20440;-76
2023/02/08 20:01:51;;;;;;;21.23;9.57;;;;;;;-1.49;52.67;99946.75;10502335;28;20062;-76
2023/02/08 20:07:12;;;;;;;19.65;8.98;;;;;;;-1.51;53.14;99947.22;10502489;28;20047;-76
2023/02/08 20:12:33;;;;;;;18.40;8.88;;;;;;;-1.54;53.03;99936.44;10488576;28;20044;-75
2023/02/08 20:17:56;;;;;;;20.05;9.00;;;;;;;-1.55;53.07;99938.38;10502160;28;20051;-75
2023/02/08 20:23:17;;;;;;;20.80;10.30;;;;;;;-1.67;53.17;99925.63;10516377;28;20044;-75
2023/02/08 20:28:47;;;;;;;21.00;10.07;;;;;;;-1.76;54.52;99917.41;10502673;28;20086;-76
2023/02/08 20:34:10;;;;;;;22.73;10.45;;;;;;;-1.76;54.26;99922.91;10489483;28;20071;-75
2023/02/08 20:39:31;;;;;;;21.15;10.23;;;;;;;-1.82;53.86;99909.06;10473544;28;20052;-75
2023/02/08 20:44:52;;;;;;;18.80;9.38;;;;;;;-1.84;54.60;99908.00;10501372;28;20202;-76
2023/02/08 20:50:13;;;;;;;23.00;10.50;;;;;;;-1.85;54.90;99899.03;10500732;28;20097;-74
2023/02/08 20:55:40;;;;;;;20.15;9.68;;;;;;;-1.86;54.65;99894.00;10501708;28;20504;-76
2023/02/08 21:01:03;;;;;;;21.70;10.48;;;;;;;-1.95;55.50;99891.28;10486767;28;20067;-73
2023/02/08 21:06:28;;;;;;;20.33;10.25;;;;;;;-2.00;54.80;99887.19;10526674;28;20060;-74
2023/02/08 21:11:49;;;;;;;;;;;;;;;-1.96;55.70;99876.06;10528846;28;20047;-74
2023/02/08 21:17:11;;;;;;;22.13;10.60;;;;;;;-2.04;55.69;99881.84;10527827;28;19920;-74
2023/02/08 21:22:32;;;;;;;21.67;11.13;;;;;;;-2.09;56.56;99871.53;10513762;28;20535;-73
2023/02/08 21:27:54;;;;;;;18.48;10.13;;;;;;;-2.12;56.15;99880.66;10513379;28;20048;-74
2023/02/08 21:33:15;;;;;;;19.80;10.43;;;;;;;-2.15;56.82;99881.56;10513148;28;20085;-74
2023/02/08 21:38:36;;;;;;;20.55;9.90;;;;;;;-2.07;56.31;99898.44;10513146;28;20115;-73
2023/02/08 21:43:57;;;;;;;19.75;9.20;;;;;;;-2.04;56.71;99892.81;10512579;28;20044;-74
2023/02/08 21:54:58;;;;;;;20.95;9.82;;;;;;;-2.13;57.05;99876.38;10529146;28;20043;-74
2023/02/08 22:00:18;;;;;;;18.52;9.27;;;;;;;-2.09;55.94;99857.84;10512147;28;20070;-74
2023/02/08 22:05:39;;;;;;;19.33;9.32;;;;;;;-2.08;56.21;99853.91;10512223;28;20059;-74
2023/02/08 22:11:03;;;;;;;17.30;9.05;;;;;;;-2.07;55.90;99844.47;10511780;28;20040;-74
2023/02/08 22:16:24;;;;;;;21.52;9.70;;;;;;;-2.06;56.65;99850.69;10499071;28;20044;-74
2023/02/08 22:21:45;;;;;;;17.48;9.43;;;;;;;-2.09;56.13;99832.47;10511429;28;20048;-74
2023/02/08 22:27:06;;;;;;;21.75;9.40;;;;;;;-2.09;56.37;99835.97;10510927;28;20047;-75
2023/02/08 22:32:27;;;;;;;20.08;8.98;;;;;;;-2.06;56.59;99837.00;10511371;28;20044;-75
2023/02/08 22:37:47;;;;;;;21.92;9.95;;;;;;;-2.10;56.79;99837.19;10524955;28;20097;-76
2023/02/08 22:43:09;;;;;;;21.10;9.65;;;;;;;-2.12;57.13;99825.94;10511308;28;20478;-76
2023/02/08 22:48:31;;;;;;;18.40;9.35;;;;;;;-2.21;57.46;99823.22;10510904;28;20055;-76
2023/02/08 22:53:55;;;;;;;20.33;9.82;;;;;;;-2.20;57.94;99813.03;10510666;28;20074;-76
2023/02/08 22:59:16;;;;;;;16.50;9.37;;;;;;;-2.25;57.83;99811.66;10496753;28;20047;-76
2023/02/08 23:04:37;;;;;;;18.77;9.00;;;;;;;-2.32;57.21;99811.94;10536826;28;20052;-75
2023/02/08 23:09:58;;;;;;;19.92;9.60;;;;;;;-2.36;57.52;99805.88;10495768;28;20036;-75
2023/02/08 23:15:18;;;;;;;19.98;9.10;;;;;;;-2.33;57.59;99818.63;10510087;28;20097;-75
2023/02/08 23:20:39;;;;;;;20.17;9.90;;;;;;;-2.39;57.88;99812.28;10480592;28;20059;-76
2023/02/08 23:26:03;;;;;;;19.85;9.75;;;;;;;-2.50;58.35;99809.25;10506003;28;20047;-75
2023/02/08 23:31:24;;;;;;;21.27;9.50;;;;;;;-2.55;58.04;99796.16;10506920;28;20044;-75
2023/02/08 23:36:45;;;;;;;22.40;10.77;;;;;;;-2.55;59.07;99798.91;10494941;28;20364;-76
2023/02/08 23:42:24;;;;;;;25.52;10.68;;;;;;;-2.60;57.82;99790.09;10504219;28;20044;-76
2023/02/08 23:47:45;;;;;;;24.35;10.57;;;;;;;-2.64;59.00;99786.75;10522404;28;20036;-76
2023/02/08 23:53:05;;;;;;;21.23;10.52;;;;;;;-2.63;58.91;99782.03;10517133;28;20048;-76
2023/02/08 23:58:26;;;;;;;21.17;9.68;;;;;;;-2.70;59.35;99777.66;10502836;28;20032;-76
